• Join FlightAware (Why Join?)
  • Login
  • US Flag 
12:45PM EDT


 

Airport Tracker/Info


-or-


 

Live Flight TrackerFlight Track Log ✈ SKW6345 ✈ 07-May-2013 ✈ KDEN - KPHX

Flight Track Log - Related Links

Times and Time Zones

All times are in EDT time to prevent confusion due to time zone crossing. See the SKW6345 flight status page for this flight to view local times or setup timezone preferences in your user account.

Time Position Orientation Groundspeed Altitude Reporting Facility
EDT Latitude Longitude Course Direction KTS MPH feet Rate Location/Type
11:36AM 39.8333 -104.7833 233° Southwest 215 247 7,000  Level Denver TRACON
11:36AM 39.8167 -104.8500 252° West 249 287 9,000 2,100 Climbing Denver TRACON
11:37AM 39.8075 -104.8744 244° Southwest 248 285 9,500 2,100 Climbing Denver Center
11:38AM 39.5864 -104.4352 210° Southwest  Level FlightAware Approximate
11:38AM 39.6667 -104.9167 193° South 322 371 13,300  Level Denver TRACON
11:39AM 39.4835 -104.4999 201° Southwest  Level FlightAware Approximate
11:39AM 39.6408 -104.9083 166° South 323 372 14,100  Level Denver Center
11:40AM 39.3951 -104.5931 237° Southwest  Level FlightAware Approximate
11:40AM 39.5497 -104.9211 186° South 336 387 16,400  Level Denver Center
11:41AM 39.3275 -104.7125 233° Southwest  Level FlightAware Approximate
11:41AM 39.4517 -104.9542 195° South 339 390 18,700  Level Denver Center
11:42AM 39.3569 -104.9889 196° South 350 403 20,900 1,920 Climbing Denver Center
11:43AM 39.2517 -105.0233 194° South 364 419 22,700 1,560 Climbing Denver Center
11:44AM 39.1606 -105.0542 195° South 363 418 24,200 1,500 Climbing Denver Center
11:45AM 39.0489 -105.1214 205° Southwest 374 430 25,900 1,500 Climbing Denver Center
11:46AM 38.9519 -105.1847 207° Southwest 386 444 27,300 1,380 Climbing Denver Center
11:47AM 38.8517 -105.2461 205° Southwest 393 452 28,800 1,500 Climbing Denver Center
11:48AM 38.7531 -105.3097 207° Southwest 393 452 30,400 1,260 Climbing Denver Center
11:49AM 38.6558 -105.3719 207° Southwest 389 448 31,500 960 Climbing Denver Center
11:50AM 38.5569 -105.4350 207° Southwest 391 450 32,500 900 Climbing Denver Center
11:51AM 38.4575 -105.4975 206° Southwest 394 453 33,400 1,020 Climbing Denver Center
11:52AM 38.3411 -105.5711 206° Southwest 396 456 34,700 1,020 Climbing Denver Center
11:53AM 38.2408 -105.6339 206° Southwest 391 450 35,600 780 Climbing Denver Center
11:54AM 38.1483 -105.6933 207° Southwest 390 449 36,400 720 Climbing Denver Center
11:55AM 38.0400 -105.7606 206° Southwest 387 445 37,200 720 Climbing Denver Center
11:56AM 37.9625 -105.8408 219° Southwest 375 432 37,900 360 Climbing Denver Center
11:57AM 37.8936 -105.9308 226° Southwest 372 428 38,000  Climbing Denver Center
11:58AM 37.8119 -106.0328 225° Southwest 370 426 38,000  Level Denver Center
11:59AM 37.7450 -106.1167 225° Southwest 357 411 38,000  Level Denver Center
12:01PM 37.6742 -106.2078 226° Southwest 353 406 38,000  Level Denver Center
12:02PM 37.5925 -106.3094 225° Southwest 368 423 38,000  Level Denver Center
12:03PM 37.5203 -106.4003 225° Southwest 381 438 38,000  Level Denver Center
12:04PM 37.4347 -106.5067 225° Southwest 387 445 38,000  Level Denver Center
12:05PM 37.3628 -106.5994 226° Southwest 387 445 38,000  Level Denver Center
12:06PM 37.2764 -106.7064 225° Southwest 391 450 38,000  Level Denver Center
12:07PM 37.2017 -106.7986 225° Southwest 391 450 38,000  Level Denver Center
12:08PM 37.1142 -106.9067 225° Southwest 395 455 38,000  Level Denver Center
12:09PM 37.0406 -106.9989 225° Southwest 392 451 38,000  Level Denver Center
12:10PM 36.9542 -107.1036 224° Southwest 389 448 38,000  Level Denver Center
12:11PM 36.8811 -107.1944 225° Southwest 387 445 38,000  Level Denver Center
12:12PM 36.7961 -107.2969 224° Southwest 384 442 38,000  Level Denver Center
12:13PM 36.7247 -107.3861 225° Southwest 380 437 38,000  Level Denver Center
12:14PM 36.6403 -107.4883 224° Southwest 378 435 38,000  Level Denver Center
12:15PM 36.5800 -107.5619 224° Southwest 379 436 38,000  Level Denver Center
12:16PM 36.4719 -107.6931 224° Southwest 378 435 38,000  Level Denver Center
12:17PM 36.3986 -107.7800 224° Southwest 380 437 38,000  Level Denver Center
12:18PM 36.3628 -107.8261 226° Southwest 381 438 38,000  Level Albuquerque Center
12:18PM 36.3133 -107.8839 223° Southwest 382 440 38,000  Level Denver Center
12:19PM 36.2400 -107.9722 224° Southwest 384 442 38,000  Level Denver Center
12:20PM 36.1544 -108.0744 224° Southwest 382 440 38,000  Level Denver Center
12:21PM 36.0797 -108.1622 224° Southwest 385 443 38,000  Level Denver Center
12:22PM 36.0544 -108.1931 225° Southwest 386 444 38,000  Level Albuquerque Center
12:23PM 35.9675 -108.2969 224° Southwest 388 447 38,000  Level Albuquerque Center
12:24PM 35.8928 -108.3853 224° Southwest 387 445 38,000 -60 Level Albuquerque Center
12:25PM 35.8058 -108.4883 224° Southwest 386 444 37,900 -480 Descending Albuquerque Center
12:26PM 35.7308 -108.5761 224° Southwest 385 443 37,100 -960 Descending Albuquerque Center
12:27PM 35.6442 -108.6781 224° Southwest 385 443 36,000 -540 Descending Albuquerque Center
12:28PM 35.5611 -108.7533 216° Southwest 385 443 36,000  Level Albuquerque Center
12:29PM 35.4722 -108.8242 213° Southwest 393 452 36,000  Level Albuquerque Center
12:30PM 35.3661 -108.9078 213° Southwest 402 463 36,000  Level Albuquerque Center
12:31PM 35.2761 -108.9786 213° Southwest 402 463 36,000  Level Albuquerque Center
12:32PM 35.1733 -109.0611 213° Southwest 397 457 36,000  Level Albuquerque Center
12:33PM 35.0853 -109.1317 213° Southwest 394 453 36,000  Level Albuquerque Center
12:34PM 34.9931 -109.2261 220° Southwest 390 449 36,000  Level Albuquerque Center
12:35PM 34.9444 -109.3356 242° Southwest 383 441 36,000  Level Albuquerque Center
12:36PM 34.8878 -109.4631 242° Southwest 382 440 36,000  Level Albuquerque Center
12:37PM 34.8378 -109.5661 239° Southwest 374 430 36,000  Level Albuquerque Center
12:38PM 34.7900 -109.6761 242° Southwest 379 436 36,000  Level Albuquerque Center
12:39PM 34.7336 -109.8008 241° Southwest 378 435 36,000 -420 Level Albuquerque Center
12:40PM 34.6867 -109.9122 243° Southwest 383 441 35,200 -1,020 Descending Albuquerque Center
12:41PM 34.6372 -110.0500 246° West 393 452 33,900 -1,080 Descending Albuquerque Center
12:42PM 34.5983 -110.1644 248° West 388 447 33,000 -1,020 Descending Albuquerque Center
12:43PM 34.5506 -110.2928 246° West 376 433 31,900 -1,020 Descending Albuquerque Center
12:45PM 34.5064 -110.3942 242° Southwest 360 414 30,900 -1,020 Descending Albuquerque Center
12:46PM 34.4678 -110.5083 248° West 372 428 29,900 -1,020 Descending Albuquerque Center
12:47PM 34.4264 -110.6194 246° West 368 423 28,800 -1,260 Descending Albuquerque Center
12:48PM 34.3736 -110.7483 244° Southwest 357 411 27,400 -1,440 Descending Albuquerque Center
12:49PM 34.3164 -110.8461 235° Southwest 356 410 25,900 -1,500 Descending Albuquerque Center
12:50PM 34.2517 -110.9294 227° Southwest 344 396 24,300 -1,620 Descending Albuquerque Center
12:51PM 34.1892 -111.0094 227° Southwest 332 382 22,600 -1,680 Descending Albuquerque Center
12:52PM 34.1289 -111.0867 227° Southwest 319 367 20,900 -1,680 Descending Albuquerque Center
12:53PM 34.0700 -111.1642 227° Southwest 315 362 19,200 -1,860 Descending Albuquerque Center
12:54PM 33.9989 -111.2547 227° Southwest 312 359 17,100 -1,860 Descending Albuquerque Center
12:55PM 33.9406 -111.3286 226° Southwest 306 352 15,400 -1,200 Descending Albuquerque Center
12:56PM 33.8856 -111.4000 227° Southwest 297 342 14,700 -900 Descending Albuquerque Center
12:57PM 33.8436 -111.4781 237° Southwest 282 325 13,600 -1,140 Descending Albuquerque Center
12:58PM 33.8025 -111.5550 237° Southwest 277 319 12,400 -1,200 Descending Albuquerque Center
12:59PM 33.7614 -111.6322 237° Southwest 274 315 11,200 -1,200 Descending Albuquerque Center
01:00PM 33.7208 -111.7097 238° Southwest 273 314 10,000 -840 Descending Albuquerque Center
01:01PM 33.6828 -111.7794 237° Southwest 261 300 9,500 -480 Descending Albuquerque Center
01:02PM 33.6425 -111.8522 236° Southwest 233 268 9,100 -300 Descending Albuquerque Center
01:03PM 33.6086 -111.9158 237° Southwest 227 261 9,000 -480 Descending Albuquerque Center
01:04PM 33.5756 -111.9769 237° Southwest 223 257 8,200 -840 Descending Albuquerque Center
01:05PM 33.5422 -112.0414 238° Southwest 224 258 7,300 -840 Descending Albuquerque Center
01:06PM 33.5267 -112.1144 256° West 226 260 6,500 -1,500 Descending Albuquerque Center
01:07PM 33.5097 -112.1767 252° West 220 253 4,300 -1,860 Descending Albuquerque Center
01:08PM 33.4578 -112.1506 157° South 189 217 2,700 -1,560 Descending Albuquerque Center